sensor_id;sensor_type;location;lat;lon;timestamp;P1;durP1;ratioP1;P2;durP2;ratioP2
948;SDS011;461;51.436;7.312;2023-07-02T03:14:06;13.67;;;8.33;;
948;SDS011;461;51.436;7.312;2023-07-02T03:16:33;17.00;;;8.50;;
948;SDS011;461;51.436;7.312;2023-07-02T03:18:59;12.80;;;7.77;;
948;SDS011;461;51.436;7.312;2023-07-02T03:21:25;13.20;;;8.67;;
948;SDS011;461;51.436;7.312;2023-07-02T03:23:51;15.57;;;9.20;;
948;SDS011;461;51.436;7.312;2023-07-02T03:26:17;16.57;;;9.30;;
948;SDS011;461;51.436;7.312;2023-07-02T03:28:44;17.80;;;8.43;;
948;SDS011;461;51.436;7.312;2023-07-02T03:31:10;17.40;;;9.03;;
948;SDS011;461;51.436;7.312;2023-07-02T03:33:36;18.60;;;9.57;;
948;SDS011;461;51.436;7.312;2023-07-02T03:36:03;18.67;;;9.50;;
948;SDS011;461;51.436;7.312;2023-07-02T03:38:29;15.53;;;9.10;;
948;SDS011;461;51.436;7.312;2023-07-02T03:40:55;18.77;;;8.97;;
948;SDS011;461;51.436;7.312;2023-07-02T03:43:21;15.03;;;9.50;;
948;SDS011;461;51.436;7.312;2023-07-02T03:45:47;20.37;;;9.67;;
948;SDS011;461;51.436;7.312;2023-07-02T03:48:13;23.77;;;11.67;;
948;SDS011;461;51.436;7.312;2023-07-02T03:50:39;18.60;;;12.13;;
948;SDS011;461;51.436;7.312;2023-07-02T03:53:05;21.90;;;10.90;;
948;SDS011;461;51.436;7.312;2023-07-02T03:55:31;22.17;;;11.20;;
948;SDS011;461;51.436;7.312;2023-07-02T03:57:57;18.07;;;9.93;;
948;SDS011;461;51.436;7.312;2023-07-02T04:00:23;16.63;;;10.17;;
948;SDS011;461;51.436;7.312;2023-07-02T04:02:49;23.60;;;11.30;;
948;SDS011;461;51.436;7.312;2023-07-02T04:05:15;20.80;;;10.40;;
948;SDS011;461;51.436;7.312;2023-07-02T04:07:41;21.60;;;10.77;;
948;SDS011;461;51.436;7.312;2023-07-02T04:10:08;20.70;;;11.03;;
948;SDS011;461;51.436;7.312;2023-07-02T04:12:34;19.77;;;11.80;;
948;SDS011;461;51.436;7.312;2023-07-02T04:15:00;25.17;;;10.67;;
948;SDS011;461;51.436;7.312;2023-07-02T04:17:27;19.83;;;12.27;;
948;SDS011;461;51.436;7.312;2023-07-02T04:19:53;16.60;;;9.73;;
948;SDS011;461;51.436;7.312;2023-07-02T04:22:20;23.73;;;12.87;;
948;SDS011;461;51.436;7.312;2023-07-02T04:24:46;23.30;;;11.10;;
948;SDS011;461;51.436;7.312;2023-07-02T04:27:14;23.53;;;11.10;;
948;SDS011;461;51.436;7.312;2023-07-02T04:29:42;15.87;;;10.03;;
948;SDS011;461;51.436;7.312;2023-07-02T04:32:08;19.57;;;10.97;;
948;SDS011;461;51.436;7.312;2023-07-02T04:34:35;18.33;;;10.73;;
948;SDS011;461;51.436;7.312;2023-07-02T04:37:04;27.70;;;11.93;;
948;SDS011;461;51.436;7.312;2023-07-02T04:39:30;21.00;;;11.70;;
948;SDS011;461;51.436;7.312;2023-07-02T04:41:57;18.07;;;10.33;;
948;SDS011;461;51.436;7.312;2023-07-02T04:44:23;19.43;;;11.00;;
948;SDS011;461;51.436;7.312;2023-07-02T04:46:56;23.70;;;13.07;;
948;SDS011;461;51.436;7.312;2023-07-02T04:49:22;25.27;;;13.33;;
948;SDS011;461;51.436;7.312;2023-07-02T04:51:48;18.43;;;12.53;;
948;SDS011;461;51.436;7.312;2023-07-02T04:54:14;21.93;;;12.17;;
948;SDS011;461;51.436;7.312;2023-07-02T04:56:41;24.50;;;11.97;;
948;SDS011;461;51.436;7.312;2023-07-02T04:59:07;26.83;;;13.30;;
948;SDS011;461;51.436;7.312;2023-07-02T05:01:33;19.33;;;11.50;;
948;SDS011;461;51.436;7.312;2023-07-02T05:03:59;25.00;;;12.03;;
948;SDS011;461;51.436;7.312;2023-07-02T05:06:25;20.03;;;11.77;;
948;SDS011;461;51.436;7.312;2023-07-02T05:08:51;21.63;;;11.90;;
948;SDS011;461;51.436;7.312;2023-07-02T05:11:18;23.17;;;11.83;;
948;SDS011;461;51.436;7.312;2023-07-02T05:13:44;23.23;;;11.90;;
948;SDS011;461;51.436;7.312;2023-07-02T05:16:10;25.40;;;13.30;;
948;SDS011;461;51.436;7.312;2023-07-02T05:18:36;20.27;;;12.07;;
948;SDS011;461;51.436;7.312;2023-07-02T05:21:02;21.50;;;12.93;;
948;SDS011;461;51.436;7.312;2023-07-02T05:23:28;22.17;;;13.30;;
948;SDS011;461;51.436;7.312;2023-07-02T05:25:54;24.47;;;12.23;;
948;SDS011;461;51.436;7.312;2023-07-02T05:28:20;23.70;;;13.13;;
948;SDS011;461;51.436;7.312;2023-07-02T05:30:46;21.30;;;12.37;;
948;SDS011;461;51.436;7.312;2023-07-02T05:33:13;26.67;;;12.37;;
948;SDS011;461;51.436;7.312;2023-07-02T05:35:40;22.10;;;12.80;;
948;SDS011;461;51.436;7.312;2023-07-02T05:38:06;24.50;;;12.23;;
948;SDS011;461;51.436;7.312;2023-07-02T05:40:32;23.07;;;13.00;;
948;SDS011;461;51.436;7.312;2023-07-02T05:42:58;19.40;;;12.67;;
948;SDS011;461;51.436;7.312;2023-07-02T05:45:24;21.67;;;13.47;;
948;SDS011;461;51.436;7.312;2023-07-02T05:47:52;23.37;;;13.93;;
948;SDS011;461;51.436;7.312;2023-07-02T05:50:18;24.03;;;14.27;;
948;SDS011;461;51.436;7.312;2023-07-02T05:52:44;21.90;;;14.03;;
948;SDS011;461;51.436;7.312;2023-07-02T05:55:11;25.87;;;16.73;;
948;SDS011;461;51.436;7.312;2023-07-02T05:57:37;24.70;;;14.50;;
948;SDS011;461;51.436;7.312;2023-07-02T06:00:07;26.70;;;14.20;;
948;SDS011;461;51.436;7.312;2023-07-02T06:02:33;24.43;;;15.00;;
948;SDS011;461;51.436;7.312;2023-07-02T06:04:59;25.27;;;13.40;;
948;SDS011;461;51.436;7.312;2023-07-02T06:07:26;21.03;;;13.57;;
948;SDS011;461;51.436;7.312;2023-07-02T06:09:53;26.90;;;13.83;;
948;SDS011;461;51.436;7.312;2023-07-02T06:12:20;24.97;;;13.60;;
948;SDS011;461;51.436;7.312;2023-07-02T06:14:46;23.87;;;14.30;;
948;SDS011;461;51.436;7.312;2023-07-02T06:17:12;22.57;;;14.10;;
948;SDS011;461;51.436;7.312;2023-07-02T06:19:38;36.47;;;15.20;;
948;SDS011;461;51.436;7.312;2023-07-02T06:22:04;27.87;;;14.70;;
948;SDS011;461;51.436;7.312;2023-07-02T06:24:30;24.53;;;14.20;;
948;SDS011;461;51.436;7.312;2023-07-02T06:26:56;23.60;;;13.57;;
948;SDS011;461;51.436;7.312;2023-07-02T06:29:23;31.10;;;15.63;;
948;SDS011;461;51.436;7.312;2023-07-02T06:31:49;29.60;;;14.20;;
948;SDS011;461;51.436;7.312;2023-07-02T06:34:16;23.80;;;14.93;;
948;SDS011;461;51.436;7.312;2023-07-02T06:36:42;32.07;;;15.00;;
948;SDS011;461;51.436;7.312;2023-07-02T06:39:08;25.93;;;15.10;;
948;SDS011;461;51.436;7.312;2023-07-02T06:41:35;29.20;;;14.27;;
948;SDS011;461;51.436;7.312;2023-07-02T06:44:01;29.90;;;16.00;;
948;SDS011;461;51.436;7.312;2023-07-02T06:46:27;32.63;;;15.53;;
948;SDS011;461;51.436;7.312;2023-07-02T06:48:54;25.10;;;13.00;;
948;SDS011;461;51.436;7.312;2023-07-02T06:51:20;22.70;;;14.03;;
948;SDS011;461;51.436;7.312;2023-07-02T06:53:46;24.10;;;12.47;;
948;SDS011;461;51.436;7.312;2023-07-02T06:56:12;27.47;;;13.77;;
948;SDS011;461;51.436;7.312;2023-07-02T06:58:39;25.20;;;13.03;;
948;SDS011;461;51.436;7.312;2023-07-02T07:01:05;17.17;;;11.70;;
948;SDS011;461;51.436;7.312;2023-07-02T07:03:33;22.40;;;13.50;;
948;SDS011;461;51.436;7.312;2023-07-02T07:05:59;23.83;;;13.90;;
948;SDS011;461;51.436;7.312;2023-07-02T07:08:25;23.20;;;12.43;;
948;SDS011;461;51.436;7.312;2023-07-02T07:10:51;24.17;;;14.13;;
948;SDS011;461;51.436;7.312;2023-07-02T07:13:17;24.17;;;12.40;;
948;SDS011;461;51.436;7.312;2023-07-02T07:15:43;23.00;;;13.03;;
948;SDS011;461;51.436;7.312;2023-07-02T07:18:09;22.23;;;12.33;;
948;SDS011;461;51.436;7.312;2023-07-02T07:20:35;19.67;;;12.03;;
948;SDS011;461;51.436;7.312;2023-07-02T07:23:01;22.00;;;11.50;;
948;SDS011;461;51.436;7.312;2023-07-02T07:25:28;24.50;;;13.00;;
948;SDS011;461;51.436;7.312;2023-07-02T07:27:54;24.23;;;12.87;;
948;SDS011;461;51.436;7.312;2023-07-02T07:30:20;19.77;;;11.90;;
948;SDS011;461;51.436;7.312;2023-07-02T07:32:50;19.50;;;11.10;;
948;SDS011;461;51.436;7.312;2023-07-02T07:35:16;18.43;;;11.37;;
948;SDS011;461;51.436;7.312;2023-07-02T07:37:43;20.50;;;12.10;;
948;SDS011;461;51.436;7.312;2023-07-02T07:40:09;17.10;;;10.93;;
948;SDS011;461;51.436;7.312;2023-07-02T07:42:38;22.87;;;11.60;;
948;SDS011;461;51.436;7.312;2023-07-02T07:45:04;19.30;;;11.43;;
948;SDS011;461;51.436;7.312;2023-07-02T07:47:31;18.83;;;11.00;;
948;SDS011;461;51.436;7.312;2023-07-02T07:49:57;23.97;;;12.77;;
948;SDS011;461;51.436;7.312;2023-07-02T07:52:23;24.37;;;10.90;;
948;SDS011;461;51.436;7.312;2023-07-02T07:54:49;21.00;;;12.43;;
948;SDS011;461;51.436;7.312;2023-07-02T07:57:15;23.43;;;12.30;;
948;SDS011;461;51.436;7.312;2023-07-02T07:59:41;19.73;;;10.60;;
948;SDS011;461;51.436;7.312;2023-07-02T08:02:07;20.30;;;11.13;;
948;SDS011;461;51.436;7.312;2023-07-02T08:04:35;18.60;;;10.60;;
948;SDS011;461;51.436;7.312;2023-07-02T08:07:01;17.70;;;11.20;;
948;SDS011;461;51.436;7.312;2023-07-02T08:09:30;17.73;;;10.60;;
948;SDS011;461;51.436;7.312;2023-07-02T08:11:58;19.47;;;11.23;;
948;SDS011;461;51.436;7.312;2023-07-02T08:14:24;15.03;;;9.87;;
948;SDS011;461;51.436;7.312;2023-07-02T08:16:50;21.00;;;11.03;;
948;SDS011;461;51.436;7.312;2023-07-02T08:19:16;18.27;;;11.50;;
948;SDS011;461;51.436;7.312;2023-07-02T08:21:42;18.23;;;11.30;;
948;SDS011;461;51.436;7.312;2023-07-02T08:24:08;18.97;;;10.90;;
948;SDS011;461;51.436;7.312;2023-07-02T08:26:35;21.17;;;10.90;;
948;SDS011;461;51.436;7.312;2023-07-02T08:29:02;20.00;;;10.93;;
948;SDS011;461;51.436;7.312;2023-07-02T08:31:33;21.43;;;11.27;;
948;SDS011;461;51.436;7.312;2023-07-02T08:34:00;24.37;;;11.30;;
948;SDS011;461;51.436;7.312;2023-07-02T08:36:26;13.40;;;9.10;;
948;SDS011;461;51.436;7.312;2023-07-02T08:38:52;19.63;;;11.00;;
948;SDS011;461;51.436;7.312;2023-07-02T08:41:19;18.77;;;11.17;;
948;SDS011;461;51.436;7.312;2023-07-02T08:43:46;19.80;;;10.40;;
948;SDS011;461;51.436;7.312;2023-07-02T08:46:14;14.23;;;9.20;;
948;SDS011;461;51.436;7.312;2023-07-02T08:48:41;19.57;;;11.40;;
948;SDS011;461;51.436;7.312;2023-07-02T08:51:07;24.47;;;10.70;;
948;SDS011;461;51.436;7.312;2023-07-02T08:53:33;17.10;;;10.33;;
948;SDS011;461;51.436;7.312;2023-07-02T08:56:00;17.77;;;10.67;;
948;SDS011;461;51.436;7.312;2023-07-02T08:58:26;20.73;;;10.50;;
948;SDS011;461;51.436;7.312;2023-07-02T09:01:09;17.43;;;9.30;;
948;SDS011;461;51.436;7.312;2023-07-02T09:03:36;19.70;;;8.47;;
948;SDS011;461;51.436;7.312;2023-07-02T09:06:03;19.60;;;8.93;;
948;SDS011;461;51.436;7.312;2023-07-02T09:08:29;17.30;;;8.87;;
948;SDS011;461;51.436;7.312;2023-07-02T09:16:37;17.87;;;9.63;;
948;SDS011;461;51.436;7.312;2023-07-02T09:48:33;14.60;;;7.43;;
948;SDS011;461;51.436;7.312;2023-07-02T13:09:37;12.83;;;6.10;;
948;SDS011;461;51.436;7.312;2023-07-02T13:12:04;10.00;;;5.90;;
948;SDS011;461;51.436;7.312;2023-07-02T13:14:30;11.33;;;6.77;;
948;SDS011;461;51.436;7.312;2023-07-02T13:16:56;12.53;;;8.07;;
948;SDS011;461;51.436;7.312;2023-07-02T13:19:24;12.13;;;7.80;;
948;SDS011;461;51.436;7.312;2023-07-02T13:21:50;15.23;;;6.50;;
948;SDS011;461;51.436;7.312;2023-07-02T13:24:16;10.53;;;7.03;;
948;SDS011;461;51.436;7.312;2023-07-02T13:26:42;9.70;;;6.47;;
948;SDS011;461;51.436;7.312;2023-07-02T13:29:08;11.73;;;7.33;;
948;SDS011;461;51.436;7.312;2023-07-02T13:31:34;12.50;;;7.10;;
948;SDS011;461;51.436;7.312;2023-07-02T13:34:02;12.50;;;7.07;;
948;SDS011;461;51.436;7.312;2023-07-02T13:36:28;14.07;;;9.03;;
948;SDS011;461;51.436;7.312;2023-07-02T13:38:54;14.30;;;8.03;;
948;SDS011;461;51.436;7.312;2023-07-02T13:41:20;13.93;;;7.30;;
948;SDS011;461;51.436;7.312;2023-07-02T13:43:47;10.27;;;7.67;;
948;SDS011;461;51.436;7.312;2023-07-02T13:46:13;18.37;;;7.57;;
948;SDS011;461;51.436;7.312;2023-07-02T13:48:39;11.90;;;7.60;;
948;SDS011;461;51.436;7.312;2023-07-02T13:51:05;16.40;;;7.93;;
948;SDS011;461;51.436;7.312;2023-07-02T13:53:33;11.50;;;8.10;;
948;SDS011;461;51.436;7.312;2023-07-02T13:55:59;15.80;;;7.57;;
948;SDS011;461;51.436;7.312;2023-07-02T13:58:25;11.33;;;7.40;;
948;SDS011;461;51.436;7.312;2023-07-02T14:00:51;14.37;;;8.57;;
948;SDS011;461;51.436;7.312;2023-07-02T14:03:17;14.60;;;9.50;;
948;SDS011;461;51.436;7.312;2023-07-02T14:05:43;13.67;;;8.50;;
948;SDS011;461;51.436;7.312;2023-07-02T14:08:09;12.13;;;8.43;;
948;SDS011;461;51.436;7.312;2023-07-02T14:10:36;20.93;;;8.10;;
948;SDS011;461;51.436;7.312;2023-07-02T14:13:04;11.40;;;7.17;;
948;SDS011;461;51.436;7.312;2023-07-02T14:15:33;14.00;;;7.27;;
948;SDS011;461;51.436;7.312;2023-07-02T14:17:59;19.00;;;8.37;;
948;SDS011;461;51.436;7.312;2023-07-02T14:20:25;14.30;;;8.13;;
948;SDS011;461;51.436;7.312;2023-07-02T14:28:59;17.03;;;9.60;;
948;SDS011;461;51.436;7.312;2023-07-02T14:37:29;14.53;;;8.30;;
948;SDS011;461;51.436;7.312;2023-07-02T15:17:35;19.83;;;8.87;;
948;SDS011;461;51.436;7.312;2023-07-02T15:20:01;13.67;;;9.30;;
948;SDS011;461;51.436;7.312;2023-07-02T15:22:29;11.73;;;6.77;;
948;SDS011;461;51.436;7.312;2023-07-02T15:24:55;16.70;;;8.40;;
948;SDS011;461;51.436;7.312;2023-07-02T15:27:21;20.93;;;9.73;;
948;SDS011;461;51.436;7.312;2023-07-02T15:29:47;15.87;;;10.40;;
948;SDS011;461;51.436;7.312;2023-07-02T15:32:13;23.77;;;9.97;;
948;SDS011;461;51.436;7.312;2023-07-02T15:34:39;15.63;;;9.87;;
948;SDS011;461;51.436;7.312;2023-07-02T15:37:05;13.70;;;8.73;;
948;SDS011;461;51.436;7.312;2023-07-02T15:39:31;16.40;;;9.50;;
948;SDS011;461;51.436;7.312;2023-07-02T15:41:58;15.60;;;9.13;;
948;SDS011;461;51.436;7.312;2023-07-02T15:44:25;17.00;;;8.73;;
948;SDS011;461;51.436;7.312;2023-07-02T15:46:51;18.87;;;9.43;;
948;SDS011;461;51.436;7.312;2023-07-02T15:49:17;13.37;;;8.97;;
948;SDS011;461;51.436;7.312;2023-07-02T15:51:43;16.07;;;8.30;;
948;SDS011;461;51.436;7.312;2023-07-02T15:54:09;19.60;;;8.93;;
948;SDS011;461;51.436;7.312;2023-07-02T15:56:35;19.10;;;8.93;;
948;SDS011;461;51.436;7.312;2023-07-02T15:59:02;15.37;;;9.47;;
948;SDS011;461;51.436;7.312;2023-07-02T16:01:30;14.40;;;8.93;;
948;SDS011;461;51.436;7.312;2023-07-02T16:03:59;15.00;;;10.00;;
948;SDS011;461;51.436;7.312;2023-07-02T16:06:26;14.90;;;9.20;;
948;SDS011;461;51.436;7.312;2023-07-02T16:08:57;15.67;;;8.37;;
948;SDS011;461;51.436;7.312;2023-07-02T16:11:23;14.57;;;8.50;;
948;SDS011;461;51.436;7.312;2023-07-02T16:13:51;20.77;;;10.40;;
948;SDS011;461;51.436;7.312;2023-07-02T16:16:18;15.27;;;8.90;;
948;SDS011;461;51.436;7.312;2023-07-02T16:18:44;18.03;;;9.73;;
948;SDS011;461;51.436;7.312;2023-07-02T16:21:11;17.20;;;10.33;;
948;SDS011;461;51.436;7.312;2023-07-02T16:23:37;15.83;;;9.20;;
948;SDS011;461;51.436;7.312;2023-07-02T16:26:04;11.37;;;8.97;;
948;SDS011;461;51.436;7.312;2023-07-02T16:28:32;14.20;;;9.97;;
948;SDS011;461;51.436;7.312;2023-07-02T16:30:58;14.43;;;9.17;;
948;SDS011;461;51.436;7.312;2023-07-02T16:33:25;16.10;;;10.63;;
948;SDS011;461;51.436;7.312;2023-07-02T16:35:51;20.03;;;9.50;;
948;SDS011;461;51.436;7.312;2023-07-02T16:38:17;17.73;;;9.60;;
948;SDS011;461;51.436;7.312;2023-07-02T16:40:47;13.97;;;8.80;;
948;SDS011;461;51.436;7.312;2023-07-02T16:43:13;14.23;;;8.67;;
948;SDS011;461;51.436;7.312;2023-07-02T16:45:39;14.87;;;9.90;;
948;SDS011;461;51.436;7.312;2023-07-02T16:48:05;20.90;;;9.90;;
948;SDS011;461;51.436;7.312;2023-07-02T16:50:31;18.93;;;9.27;;
948;SDS011;461;51.436;7.312;2023-07-02T16:52:58;20.90;;;9.20;;
948;SDS011;461;51.436;7.312;2023-07-02T16:55:24;18.47;;;9.43;;
948;SDS011;461;51.436;7.312;2023-07-02T16:57:50;15.87;;;8.63;;
948;SDS011;461;51.436;7.312;2023-07-02T17:00:17;18.40;;;8.83;;
948;SDS011;461;51.436;7.312;2023-07-02T17:02:43;16.03;;;9.10;;
948;SDS011;461;51.436;7.312;2023-07-02T17:05:09;18.43;;;8.30;;
948;SDS011;461;51.436;7.312;2023-07-02T17:07:35;14.30;;;8.23;;
948;SDS011;461;51.436;7.312;2023-07-02T17:10:01;11.43;;;7.77;;
948;SDS011;461;51.436;7.312;2023-07-02T17:12:29;16.37;;;8.60;;
948;SDS011;461;51.436;7.312;2023-07-02T17:14:55;18.10;;;9.20;;
948;SDS011;461;51.436;7.312;2023-07-02T17:17:24;15.67;;;8.37;;
948;SDS011;461;51.436;7.312;2023-07-02T17:19:53;18.43;;;9.10;;
948;SDS011;461;51.436;7.312;2023-07-02T17:22:21;15.00;;;9.10;;
948;SDS011;461;51.436;7.312;2023-07-02T17:24:48;14.60;;;8.93;;
948;SDS011;461;51.436;7.312;2023-07-02T17:27:16;22.10;;;9.77;;
948;SDS011;461;51.436;7.312;2023-07-02T17:29:48;13.80;;;8.10;;
948;SDS011;461;51.436;7.312;2023-07-02T17:32:14;11.53;;;7.60;;
948;SDS011;461;51.436;7.312;2023-07-02T17:37:10;13.87;;;7.03;;
948;SDS011;461;51.436;7.312;2023-07-02T17:39:39;16.63;;;8.63;;
948;SDS011;461;51.436;7.312;2023-07-02T17:42:06;12.63;;;8.03;;
948;SDS011;461;51.436;7.312;2023-07-02T17:44:34;16.87;;;8.67;;
948;SDS011;461;51.436;7.312;2023-07-02T17:47:03;11.77;;;7.90;;
948;SDS011;461;51.436;7.312;2023-07-02T17:49:33;14.33;;;7.30;;
948;SDS011;461;51.436;7.312;2023-07-02T17:52:00;13.83;;;8.00;;
948;SDS011;461;51.436;7.312;2023-07-02T17:54:26;13.27;;;7.60;;
948;SDS011;461;51.436;7.312;2023-07-02T17:56:53;12.10;;;8.13;;
948;SDS011;461;51.436;7.312;2023-07-02T17:59:20;19.83;;;8.00;;
948;SDS011;461;51.436;7.312;2023-07-02T18:01:49;16.73;;;8.03;;
948;SDS011;461;51.436;7.312;2023-07-02T18:04:16;13.37;;;8.30;;
948;SDS011;461;51.436;7.312;2023-07-02T18:06:42;13.03;;;7.30;;
948;SDS011;461;51.436;7.312;2023-07-02T18:09:09;14.77;;;7.93;;
948;SDS011;461;51.436;7.312;2023-07-02T18:11:35;11.53;;;7.30;;
948;SDS011;461;51.436;7.312;2023-07-02T18:14:05;11.57;;;6.73;;
948;SDS011;461;51.436;7.312;2023-07-02T18:16:32;18.00;;;8.60;;
948;SDS011;461;51.436;7.312;2023-07-02T18:18:59;15.10;;;8.90;;
948;SDS011;461;51.436;7.312;2023-07-02T18:21:25;9.37;;;7.03;;
948;SDS011;461;51.436;7.312;2023-07-02T18:23:51;18.03;;;8.57;;
948;SDS011;461;51.436;7.312;2023-07-02T18:26:17;14.33;;;8.00;;
948;SDS011;461;51.436;7.312;2023-07-02T18:28:43;14.80;;;7.83;;
948;SDS011;461;51.436;7.312;2023-07-02T18:31:09;16.37;;;8.97;;
948;SDS011;461;51.436;7.312;2023-07-02T18:33:35;21.13;;;8.00;;
948;SDS011;461;51.436;7.312;2023-07-02T18:36:02;15.13;;;7.80;;
948;SDS011;461;51.436;7.312;2023-07-02T18:38:30;12.43;;;7.30;;
948;SDS011;461;51.436;7.312;2023-07-02T18:41:00;15.67;;;8.33;;
948;SDS011;461;51.436;7.312;2023-07-02T18:43:28;19.60;;;8.40;;
948;SDS011;461;51.436;7.312;2023-07-02T18:45:54;16.70;;;7.93;;
948;SDS011;461;51.436;7.312;2023-07-02T18:48:20;17.43;;;7.40;;
948;SDS011;461;51.436;7.312;2023-07-02T18:50:50;9.97;;;7.23;;
948;SDS011;461;51.436;7.312;2023-07-02T18:53:18;14.73;;;8.30;;
948;SDS011;461;51.436;7.312;2023-07-02T18:55:57;12.70;;;7.13;;
948;SDS011;461;51.436;7.312;2023-07-02T18:58:25;19.43;;;8.40;;
948;SDS011;461;51.436;7.312;2023-07-02T19:00:51;12.50;;;7.80;;
948;SDS011;461;51.436;7.312;2023-07-02T19:03:19;13.50;;;7.80;;
948;SDS011;461;51.436;7.312;2023-07-02T19:05:46;15.90;;;7.20;;
948;SDS011;461;51.436;7.312;2023-07-02T19:08:13;15.90;;;7.60;;
948;SDS011;461;51.436;7.312;2023-07-02T19:10:39;14.53;;;7.13;;
948;SDS011;461;51.436;7.312;2023-07-02T19:13:05;16.67;;;9.30;;
948;SDS011;461;51.436;7.312;2023-07-02T19:15:34;15.47;;;8.57;;
948;SDS011;461;51.436;7.312;2023-07-02T19:18:00;14.03;;;7.90;;
948;SDS011;461;51.436;7.312;2023-07-02T19:20:27;14.00;;;8.03;;
948;SDS011;461;51.436;7.312;2023-07-02T19:22:53;17.63;;;9.33;;
948;SDS011;461;51.436;7.312;2023-07-02T19:25:20;19.30;;;8.60;;
948;SDS011;461;51.436;7.312;2023-07-02T19:27:46;19.40;;;8.10;;
948;SDS011;461;51.436;7.312;2023-07-02T19:30:13;18.03;;;8.33;;
948;SDS011;461;51.436;7.312;2023-07-02T19:32:39;15.80;;;9.23;;
948;SDS011;461;51.436;7.312;2023-07-02T19:35:06;16.13;;;9.23;;
948;SDS011;461;51.436;7.312;2023-07-02T19:37:32;14.90;;;8.50;;
948;SDS011;461;51.436;7.312;2023-07-02T19:39:59;15.00;;;7.53;;
948;SDS011;461;51.436;7.312;2023-07-02T19:42:25;12.60;;;7.77;;
948;SDS011;461;51.436;7.312;2023-07-02T19:44:55;15.00;;;7.70;;
948;SDS011;461;51.436;7.312;2023-07-02T19:47:21;19.57;;;8.40;;
948;SDS011;461;51.436;7.312;2023-07-02T19:49:48;15.10;;;7.73;;
948;SDS011;461;51.436;7.312;2023-07-02T19:52:14;11.50;;;7.23;;
948;SDS011;461;51.436;7.312;2023-07-02T19:54:41;16.80;;;8.53;;
948;SDS011;461;51.436;7.312;2023-07-02T19:59:43;13.90;;;8.07;;
948;SDS011;461;51.436;7.312;2023-07-02T20:02:10;21.33;;;9.90;;
948;SDS011;461;51.436;7.312;2023-07-02T20:04:42;18.07;;;8.43;;
948;SDS011;461;51.436;7.312;2023-07-02T20:07:10;13.07;;;8.57;;
948;SDS011;461;51.436;7.312;2023-07-02T20:09:36;14.83;;;9.20;;
948;SDS011;461;51.436;7.312;2023-07-02T20:12:06;15.17;;;8.53;;
948;SDS011;461;51.436;7.312;2023-07-02T20:14:32;12.90;;;8.07;;
948;SDS011;461;51.436;7.312;2023-07-02T20:16:59;20.30;;;9.87;;
948;SDS011;461;51.436;7.312;2023-07-02T20:19:26;11.33;;;7.67;;
948;SDS011;461;51.436;7.312;2023-07-02T20:21:52;12.87;;;7.73;;
948;SDS011;461;51.436;7.312;2023-07-02T20:24:23;14.57;;;7.53;;
948;SDS011;461;51.436;7.312;2023-07-02T20:26:52;13.03;;;7.20;;
948;SDS011;461;51.436;7.312;2023-07-02T20:29:20;12.27;;;6.27;;
948;SDS011;461;51.436;7.312;2023-07-02T20:31:46;11.33;;;6.80;;
948;SDS011;461;51.436;7.312;2023-07-02T20:34:15;10.40;;;7.67;;
948;SDS011;461;51.436;7.312;2023-07-02T20:36:44;8.77;;;5.73;;
948;SDS011;461;51.436;7.312;2023-07-02T20:39:11;11.67;;;6.10;;
948;SDS011;461;51.436;7.312;2023-07-02T20:41:37;9.93;;;5.17;;
948;SDS011;461;51.436;7.312;2023-07-02T20:44:10;14.30;;;6.43;;
948;SDS011;461;51.436;7.312;2023-07-02T20:46:38;9.03;;;5.10;;
948;SDS011;461;51.436;7.312;2023-07-02T20:49:15;9.60;;;5.10;;
948;SDS011;461;51.436;7.312;2023-07-02T20:51:42;11.03;;;4.50;;
948;SDS011;461;51.436;7.312;2023-07-02T20:54:12;9.57;;;5.13;;
948;SDS011;461;51.436;7.312;2023-07-02T20:56:39;11.60;;;5.33;;
948;SDS011;461;51.436;7.312;2023-07-02T20:59:05;12.53;;;5.63;;
948;SDS011;461;51.436;7.312;2023-07-02T21:01:33;6.80;;;4.70;;
948;SDS011;461;51.436;7.312;2023-07-02T21:03:59;12.93;;;5.27;;
948;SDS011;461;51.436;7.312;2023-07-02T21:06:31;9.10;;;4.60;;
948;SDS011;461;51.436;7.312;2023-07-02T21:08:57;9.60;;;4.53;;
948;SDS011;461;51.436;7.312;2023-07-02T21:11:24;8.30;;;5.20;;
948;SDS011;461;51.436;7.312;2023-07-02T21:13:50;9.03;;;4.77;;
948;SDS011;461;51.436;7.312;2023-07-02T21:16:16;14.47;;;5.43;;
948;SDS011;461;51.436;7.312;2023-07-02T21:18:42;12.57;;;5.33;;
948;SDS011;461;51.436;7.312;2023-07-02T21:21:08;8.20;;;4.70;;
948;SDS011;461;51.436;7.312;2023-07-02T21:23:34;9.80;;;5.23;;
948;SDS011;461;51.436;7.312;2023-07-02T21:26:01;7.63;;;5.10;;
948;SDS011;461;51.436;7.312;2023-07-02T21:28:28;10.33;;;4.43;;
948;SDS011;461;51.436;7.312;2023-07-02T21:30:54;12.53;;;5.07;;
948;SDS011;461;51.436;7.312;2023-07-02T21:33:21;8.93;;;4.50;;
948;SDS011;461;51.436;7.312;2023-07-02T21:35:47;11.17;;;6.03;;
948;SDS011;461;51.436;7.312;2023-07-02T21:38:13;8.20;;;5.10;;
948;SDS011;461;51.436;7.312;2023-07-02T21:40:40;8.40;;;4.60;;
948;SDS011;461;51.436;7.312;2023-07-02T21:43:06;10.73;;;5.30;;
